Time;durP1;ratioP1;P1;durP2;ratioP2;P2;SDS_P1;SDS_P2;PMS_P1;PMS_P2;Temp;Humidity;BMP_temperature;BMP_pressure;BME280_temperature;BME280_humidity;BME280_pressure;Samples;Min_cycle;Max_cycle;Signal;HPM_P1;HPM_P2
2023/03/16 00:01:04;;;;;;;10.90;6.38;;;6.30;99.90;;;;;;4967502;28;20030;-73
2023/03/16 00:03:30;;;;;;;11.18;6.63;;;6.30;99.90;;;;;;4968562;28;20731;-74
2023/03/16 00:05:55;;;;;;;11.35;6.13;;;6.30;99.90;;;;;;4971183;28;20062;-74
2023/03/16 00:08:21;;;;;;;9.68;6.40;;;6.40;99.90;;;;;;4968473;28;20108;-74
2023/03/16 00:10:47;;;;;;;11.30;6.38;;;6.40;99.90;;;;;;4968735;28;20031;-73
2023/03/16 00:13:17;;;;;;;10.57;6.07;;;6.50;99.90;;;;;;4967672;28;20736;-74
2023/03/16 00:15:54;;;;;;;8.73;5.80;;;6.40;99.90;;;;;;4973153;28;20032;-74
2023/03/16 00:18:25;;;;;;;11.32;7.47;;;6.40;99.90;;;;;;4970066;28;20046;-74
2023/03/16 00:20:57;;;;;;;10.68;6.40;;;6.40;99.90;;;;;;4966076;28;20015;-73
2023/03/16 00:23:26;;;;;;;11.57;6.20;;;6.40;99.90;;;;;;4970734;28;20030;-73
2023/03/16 00:25:55;;;;;;;12.35;6.25;;;6.50;99.90;;;;;;4966239;28;20035;-74
2023/03/16 00:28:22;;;;;;;8.20;5.93;;;6.40;99.90;;;;;;4968682;28;20031;-74
2023/03/16 00:30:48;;;;;;;11.10;6.53;;;6.60;99.90;;;;;;4973311;28;20035;-74
2023/03/16 00:33:14;;;;;;;11.45;5.70;;;6.50;99.90;;;;;;4972958;28;20023;-74
2023/03/16 00:35:49;;;;;;;10.05;6.20;;;6.50;99.90;;;;;;4990582;28;20395;-74
2023/03/16 00:38:19;;;;;;;9.55;5.07;;;6.50;99.90;;;;;;4972494;28;20101;-74
2023/03/16 00:40:45;;;;;;;8.35;5.55;;;6.50;99.90;;;;;;4966875;28;20027;-74
2023/03/16 00:43:12;;;;;;;11.95;5.70;;;6.60;99.90;;;;;;4970293;28;20030;-74
2023/03/16 00:45:38;;;;;;;9.90;5.45;;;6.60;99.90;;;;;;4970927;28;20084;-74
2023/03/16 00:48:03;;;;;;;11.23;5.78;;;6.60;99.90;;;;;;4966564;28;20027;-74
2023/03/16 00:50:30;;;;;;;8.32;5.65;;;6.70;99.90;;;;;;4973442;28;20035;-74
2023/03/16 00:52:55;;;;;;;8.57;5.70;;;6.70;99.90;;;;;;4975605;28;20064;-74
2023/03/16 00:55:21;;;;;;;9.25;5.30;;;6.70;99.90;;;;;;4975275;28;20109;-74
2023/03/16 00:57:47;;;;;;;9.40;5.10;;;6.60;99.90;;;;;;4969490;28;20490;-73
2023/03/16 01:00:15;;;;;;;8.55;4.78;;;6.60;99.90;;;;;;4969718;28;20029;-74
2023/03/16 01:02:44;;;;;;;7.13;5.25;;;6.60;99.90;;;;;;4965518;28;20134;-74
2023/03/16 01:05:11;;;;;;;9.88;5.55;;;6.70;99.90;;;;;;4971461;28;20400;-73
2023/03/16 01:07:41;;;;;;;7.82;4.72;;;6.70;99.90;;;;;;4972159;28;20027;-74
2023/03/16 01:10:08;;;;;;;6.93;5.20;;;6.60;99.90;;;;;;4969610;28;20033;-73
2023/03/16 01:12:34;;;;;;;9.55;5.60;;;6.70;99.90;;;;;;4964912;28;20026;-74
2023/03/16 01:15:00;;;;;;;9.55;5.88;;;6.60;99.90;;;;;;4969800;28;20050;-73
2023/03/16 01:17:26;;;;;;;12.27;5.50;;;6.60;99.90;;;;;;4968378;28;20038;-74
2023/03/16 01:19:52;;;;;;;10.32;5.07;;;6.60;99.90;;;;;;4970302;28;20023;-74
2023/03/16 01:22:18;;;;;;;11.05;5.78;;;6.60;99.90;;;;;;4977400;28;20031;-73
2023/03/16 01:24:44;;;;;;;9.13;5.20;;;6.60;99.90;;;;;;4960138;28;20495;-74
2023/03/16 01:27:11;;;;;;;8.98;5.15;;;6.70;99.90;;;;;;4981677;28;20035;-74
2023/03/16 01:29:38;;;;;;;10.15;5.20;;;6.60;99.90;;;;;;4969659;28;20046;-74
2023/03/16 01:32:05;;;;;;;8.70;5.45;;;6.70;99.90;;;;;;4968419;28;20042;-73
2023/03/16 01:34:32;;;;;;;11.32;5.65;;;6.80;99.90;;;;;;4970522;28;20029;-73
2023/03/16 01:36:58;;;;;;;11.23;6.35;;;6.80;99.90;;;;;;5046243;28;20500;-74
2023/03/16 01:39:24;;;;;;;9.13;6.35;;;6.90;99.90;;;;;;5034493;28;20027;-72
2023/03/16 01:41:50;;;;;;;9.27;5.57;;;6.90;99.90;;;;;;5008735;28;20478;-73
2023/03/16 01:44:21;;;;;;;11.07;6.05;;;6.90;99.90;;;;;;5008276;28;20023;-73
2023/03/16 01:46:47;;;;;;;5.88;5.20;;;6.90;99.90;;;;;;5002399;28;20095;-73
2023/03/16 01:49:22;;;;;;;7.43;5.03;;;6.80;99.90;;;;;;4984853;28;20026;-72
2023/03/16 01:52:11;;;;;;;10.02;5.70;;;6.80;99.90;;;;;;4995654;28;20041;-73
2023/03/16 01:54:41;;;;;;;9.07;5.35;;;6.80;99.90;;;;;;4996918;28;20031;-73
2023/03/16 01:57:20;;;;;;;9.98;5.45;;;6.90;99.90;;;;;;4985243;28;20416;-74
2023/03/16 01:59:56;;;;;;;8.40;5.43;;;6.90;99.90;;;;;;4968956;28;20027;-73
2023/03/16 02:02:29;;;;;;;6.82;4.70;;;7.00;99.90;;;;;;4968919;28;20375;-73
2023/03/16 02:05:00;;;;;;;;;;;7.00;99.90;;;;;;4968645;28;20019;-71
2023/03/16 02:07:29;;;;;;;7.00;4.57;;;7.10;99.90;;;;;;4979207;28;19921;-73
2023/03/16 02:10:01;;;;;;;8.00;4.90;;;7.20;99.90;;;;;;5014649;28;20085;-73
2023/03/16 02:12:28;;;;;;;10.65;5.63;;;7.20;99.90;;;;;;4964761;28;20244;-73
2023/03/16 02:14:53;;;;;;;8.90;5.40;;;7.20;99.90;;;;;;4958100;28;20480;-74
2023/03/16 02:17:26;;;;;;;10.02;4.65;;;7.20;99.90;;;;;;4952224;28;20037;-72
2023/03/16 02:20:13;;;;;;;9.30;5.82;;;7.20;99.90;;;;;;4953523;28;20043;-73
2023/03/16 02:22:43;;;;;;;11.60;5.57;;;7.20;99.90;;;;;;4972820;28;20047;-73
2023/03/16 02:25:10;;;;;;;9.70;4.97;;;7.20;99.90;;;;;;4971328;28;20034;-72
2023/03/16 02:28:21;;;;;;;7.70;5.47;;;7.10;99.90;;;;;;4970766;28;20030;-73
2023/03/16 02:30:47;;;;;;;7.25;4.70;;;7.00;99.90;;;;;;5051788;28;20481;-73
2023/03/16 02:33:14;;;;;;;7.80;5.22;;;7.10;99.90;;;;;;4978722;28;20503;-73
2023/03/16 02:35:40;;;;;;;5.13;4.57;;;7.10;99.90;;;;;;4967861;28;20426;-73
2023/03/16 02:38:06;;;;;;;6.90;5.07;;;7.00;99.90;;;;;;4971539;28;20033;-73
2023/03/16 02:40:33;;;;;;;6.15;4.70;;;7.10;99.90;;;;;;4969528;28;20019;-73
2023/03/16 02:43:06;;;;;;;6.90;4.35;;;7.10;99.90;;;;;;4970782;28;20023;-73
2023/03/16 02:45:42;;;;;;;6.20;4.57;;;7.10;99.90;;;;;;4975477;28;20031;-73
2023/03/16 02:48:23;;;;;;;8.82;5.15;;;7.10;99.90;;;;;;4972960;28;20531;-73
2023/03/16 02:50:51;;;;;;;9.32;4.63;;;7.10;99.90;;;;;;4973850;28;20034;-74
2023/03/16 02:53:17;;;;;;;8.52;4.40;;;7.10;99.90;;;;;;4974134;28;20039;-71
2023/03/16 02:55:43;;;;;;;8.52;4.32;;;7.00;99.90;;;;;;4988113;28;20038;-72
2023/03/16 02:58:10;;;;;;;7.85;4.35;;;7.00;99.90;;;;;;4969635;28;20474;-72
2023/03/16 03:00:37;;;;;;;7.93;4.72;;;7.00;99.90;;;;;;4972255;28;20039;-73
2023/03/16 03:03:04;;;;;;;9.38;4.40;;;6.90;99.90;;;;;;4986228;28;20402;-73
2023/03/16 03:05:30;;;;;;;8.13;4.15;;;7.00;99.90;;;;;;4970156;28;20047;-72
2023/03/16 03:07:56;;;;;;;6.43;4.65;;;7.10;99.90;;;;;;4967674;28;20092;-72
2023/03/16 03:10:22;;;;;;;10.25;5.47;;;7.20;99.90;;;;;;4968506;28;20395;-72
2023/03/16 03:12:48;;;;;;;5.53;4.38;;;7.10;99.90;;;;;;4970418;28;20499;-73
2023/03/16 03:15:15;;;;;;;7.43;4.10;;;7.10;99.90;;;;;;4970416;28;20018;-73
2023/03/16 03:17:41;;;;;;;6.50;4.43;;;7.10;99.90;;;;;;4970497;28;20023;-73
2023/03/16 03:20:18;;;;;;;6.32;3.42;;;7.10;99.90;;;;;;4968895;28;20118;-73
2023/03/16 03:22:51;;;;;;;6.22;3.97;;;7.10;99.90;;;;;;4969194;28;20066;-72
2023/03/16 03:25:19;;;;;;;6.53;3.40;;;7.10;99.90;;;;;;4969483;28;20011;-73
2023/03/16 03:27:46;;;;;;;4.90;4.13;;;7.10;99.90;;;;;;4969810;28;20026;-73
2023/03/16 03:30:15;;;;;;;4.72;3.70;;;7.10;99.90;;;;;;4970187;28;20987;-73
2023/03/16 03:32:40;;;;;;;4.45;4.00;;;7.10;99.90;;;;;;4968968;28;20553;-73
2023/03/16 03:35:11;;;;;;;6.60;3.47;;;7.20;99.90;;;;;;4969897;28;20019;-73
2023/03/16 03:37:37;;;;;;;6.82;3.58;;;7.20;99.90;;;;;;4969677;28;20387;-73
2023/03/16 03:40:10;;;;;;;8.38;3.40;;;7.20;99.90;;;;;;4969595;28;20030;-73
2023/03/16 03:42:36;;;;;;;9.52;3.58;;;7.10;99.90;;;;;;4969710;28;20113;-72
2023/03/16 03:45:02;;;;;;;7.13;3.30;;;7.20;99.90;;;;;;4969551;28;20431;-73
2023/03/16 03:47:28;;;;;;;6.18;3.97;;;7.20;99.90;;;;;;4970184;28;20062;-73
2023/03/16 03:49:53;;;;;;;6.97;3.17;;;7.20;99.90;;;;;;4969162;28;20053;-72
2023/03/16 03:52:19;;;;;;;5.97;3.40;;;7.20;99.90;;;;;;4972363;28;20089;-72
2023/03/16 03:54:45;;;;;;;8.13;3.05;;;7.20;99.90;;;;;;4969625;28;20419;-72
2023/03/16 03:57:11;;;;;;;4.72;3.00;;;7.20;99.90;;;;;;4984663;28;20035;-72
2023/03/16 03:59:41;;;;;;;7.78;4.00;;;7.10;99.90;;;;;;4968635;28;20102;-72
2023/03/16 04:02:12;;;;;;;4.80;3.10;;;7.10;99.90;;;;;;4970095;28;20057;-72
2023/03/16 04:04:38;;;;;;;8.35;3.47;;;7.10;99.90;;;;;;4969631;28;20046;-73
2023/03/16 04:07:03;;;;;;;4.90;3.00;;;7.10;99.90;;;;;;4969764;28;20015;-72
2023/03/16 04:09:32;;;;;;;5.90;3.08;;;7.00;99.90;;;;;;4969799;28;20023;-73
2023/03/16 04:11:59;;;;;;;8.82;3.58;;;7.10;99.90;;;;;;4969347;28;20109;-72
2023/03/16 04:14:25;;;;;;;7.95;3.20;;;7.10;99.90;;;;;;4968673;28;20031;-72
2023/03/16 04:16:51;;;;;;;5.85;3.53;;;7.20;99.90;;;;;;4969862;28;20438;-73
2023/03/16 04:19:16;;;;;;;6.75;3.50;;;7.20;99.90;;;;;;4984680;28;20080;-73
2023/03/16 04:21:42;;;;;;;7.30;3.70;;;7.20;99.90;;;;;;4972364;28;20057;-74
2023/03/16 04:24:07;;;;;;;5.60;3.33;;;7.30;99.90;;;;;;4971005;28;20644;-73
2023/03/16 04:26:33;;;;;;;7.88;4.05;;;7.20;99.90;;;;;;4971411;28;20076;-73
2023/03/16 04:28:59;;;;;;;4.20;3.60;;;7.30;99.90;;;;;;4971357;28;20022;-74
2023/03/16 04:31:25;;;;;;;6.93;3.60;;;7.20;99.90;;;;;;4971796;28;20053;-73
2023/03/16 04:33:53;;;;;;;8.15;3.60;;;7.00;99.90;;;;;;4972222;28;20019;-73
2023/03/16 04:36:22;;;;;;;10.10;3.53;;;7.00;99.90;;;;;;4970641;28;20035;-74
2023/03/16 04:38:49;;;;;;;4.30;3.05;;;7.10;99.90;;;;;;4971282;28;20590;-73
2023/03/16 04:41:16;;;;;;;4.47;3.25;;;7.20;99.90;;;;;;4971578;28;20484;-73
2023/03/16 04:43:42;;;;;;;4.72;3.28;;;7.20;99.90;;;;;;4970132;28;20101;-73
2023/03/16 04:46:08;;;;;;;6.38;3.28;;;7.20;99.90;;;;;;4971306;28;20122;-73
2023/03/16 04:48:35;;;;;;;5.38;3.42;;;7.20;99.90;;;;;;4986919;28;20144;-73
2023/03/16 04:51:02;;;;;;;6.38;3.17;;;7.20;99.90;;;;;;4971749;28;20047;-72
2023/03/16 04:53:30;;;;;;;3.70;3.28;;;7.20;99.90;;;;;;4972277;28;20418;-73
2023/03/16 04:55:56;;;;;;;3.13;2.80;;;7.20;99.90;;;;;;4971801;28;20027;-73
2023/03/16 04:58:23;;;;;;;6.28;3.40;;;7.20;99.90;;;;;;4971313;28;20046;-72
2023/03/16 05:00:51;;;;;;;7.25;3.20;;;7.20;99.90;;;;;;4970920;28;20029;-73
2023/03/16 05:03:17;;;;;;;7.15;3.40;;;7.20;99.90;;;;;;4972026;28;20027;-72
2023/03/16 05:05:45;;;;;;;4.60;3.90;;;7.10;99.90;;;;;;4970932;28;20031;-73
2023/03/16 05:08:11;;;;;;;6.43;3.40;;;7.20;99.90;;;;;;4970239;28;20088;-74
2023/03/16 05:10:36;;;;;;;5.85;3.75;;;7.20;99.90;;;;;;4971174;28;20031;-73
2023/03/16 05:13:02;;;;;;;7.07;3.95;;;7.20;99.90;;;;;;4970227;28;20392;-73
2023/03/16 05:15:28;;;;;;;8.55;4.10;;;7.20;99.90;;;;;;4970627;28;20105;-73
2023/03/16 05:17:57;;;;;;;8.35;3.65;;;7.10;99.90;;;;;;4969662;28;20419;-73
2023/03/16 05:20:24;;;;;;;5.13;3.40;;;7.20;99.90;;;;;;4971334;28;20081;-72
2023/03/16 05:22:50;;;;;;;6.60;3.35;;;7.20;99.90;;;;;;4971554;28;20462;-73
2023/03/16 05:25:17;;;;;;;8.48;3.35;;;7.20;99.90;;;;;;4970588;28;20100;-73
2023/03/16 05:27:49;;;;;;;8.68;3.67;;;7.10;99.90;;;;;;4970580;28;20019;-73
2023/03/16 05:30:16;;;;;;;12.90;3.72;;;7.20;99.90;;;;;;4971364;28;20125;-73
2023/03/16 05:32:43;;;;;;;7.32;3.70;;;7.20;99.90;;;;;;4970818;28;20039;-74
2023/03/16 05:35:13;;;;;;;8.27;3.55;;;7.20;99.90;;;;;;4971631;28;20494;-74
2023/03/16 05:37:42;;;;;;;7.30;3.75;;;7.30;99.90;;;;;;4969648;28;20436;-73
2023/03/16 05:40:15;;;;;;;7.40;3.53;;;7.20;99.90;;;;;;4971157;28;20063;-74
2023/03/16 05:42:45;;;;;;;9.95;4.18;;;7.30;99.90;;;;;;4970795;28;20019;-74
2023/03/16 05:45:12;;;;;;;8.27;3.65;;;7.20;99.90;;;;;;4970797;28;20034;-74
2023/03/16 05:47:38;;;;;;;9.82;4.00;;;7.20;99.90;;;;;;4970794;28;20054;-74
2023/03/16 05:50:04;;;;;;;5.72;3.80;;;7.20;99.90;;;;;;4970214;28;20536;-74
2023/03/16 05:52:31;;;;;;;9.25;3.78;;;7.20;99.90;;;;;;4970861;28;20530;-73
2023/03/16 05:54:56;;;;;;;6.93;3.85;;;7.20;99.90;;;;;;4970398;28;20045;-73
2023/03/16 05:57:22;;;;;;;6.95;3.80;;;7.20;99.90;;;;;;4970935;28;20442;-73
2023/03/16 05:59:48;;;;;;;7.75;4.38;;;7.20;99.90;;;;;;4970977;28;20435;-74
2023/03/16 06:02:13;;;;;;;6.25;4.13;;;7.30;99.90;;;;;;4971267;28;20030;-73
2023/03/16 06:04:39;;;;;;;7.68;4.20;;;7.30;99.90;;;;;;4969588;28;20387;-74
2023/03/16 06:07:05;;;;;;;9.27;5.00;;;7.30;99.90;;;;;;4971180;28;20824;-74
2023/03/16 06:09:31;;;;;;;20.48;8.90;;;7.20;99.90;;;;;;4985520;28;20437;-74
2023/03/16 06:11:57;;;;;;;16.20;8.75;;;7.30;99.90;;;;;;4967538;28;20030;-74
2023/03/16 06:14:23;;;;;;;18.95;8.70;;;7.20;99.90;;;;;;4968791;28;20050;-74
2023/03/16 06:16:50;;;;;;;9.52;5.55;;;7.30;99.90;;;;;;4968488;28;20471;-72
2023/03/16 06:19:15;;;;;;;10.40;4.43;;;7.20;99.90;;;;;;4969468;28;20035;-73
2023/03/16 06:21:41;;;;;;;9.23;4.53;;;7.20;99.90;;;;;;4970425;28;20035;-73
2023/03/16 06:24:08;;;;;;;6.85;3.95;;;7.20;99.90;;;;;;4969691;28;20039;-74
2023/03/16 06:26:35;;;;;;;8.20;4.70;;;7.30;99.90;;;;;;4969502;28;20034;-73
2023/03/16 06:29:00;;;;;;;5.85;4.57;;;7.30;99.90;;;;;;4970092;28;20058;-73
2023/03/16 06:31:26;;;;;;;9.15;4.05;;;7.30;99.90;;;;;;4969437;28;20038;-73
2023/03/16 06:33:52;;;;;;;8.43;4.47;;;7.30;99.90;;;;;;4969730;28;20031;-73
2023/03/16 06:36:18;;;;;;;8.88;4.18;;;7.40;99.90;;;;;;4968971;28;20368;-73
2023/03/16 06:38:43;;;;;;;6.63;3.80;;;7.30;99.90;;;;;;4969470;28;20019;-73
2023/03/16 06:41:09;;;;;;;6.07;4.13;;;7.40;99.90;;;;;;4969588;28;20041;-74
2023/03/16 06:43:35;;;;;;;8.35;4.57;;;7.40;99.90;;;;;;4969990;28;20019;-74
2023/03/16 06:46:02;;;;;;;6.50;4.15;;;7.50;99.90;;;;;;4969377;28;20039;-74
2023/03/16 06:48:28;;;;;;;7.50;4.32;;;7.40;99.90;;;;;;4970771;28;20023;-73
2023/03/16 06:50:54;;;;;;;7.90;4.10;;;7.40;99.90;;;;;;4970589;28;20037;-74
2023/03/16 06:53:20;;;;;;;6.05;4.22;;;7.50;99.90;;;;;;4969590;28;20118;-74
2023/03/16 06:55:46;;;;;;;7.45;3.75;;;7.40;99.90;;;;;;4968998;28;20030;-74
2023/03/16 06:58:12;;;;;;;5.25;3.55;;;7.50;99.90;;;;;;4969912;28;20594;-74
2023/03/16 07:00:38;;;;;;;6.80;3.80;;;7.50;99.90;;;;;;4970376;28;20479;-74
2023/03/16 07:03:04;;;;;;;7.35;3.72;;;7.50;99.90;;;;;;4956593;28;20023;-74
2023/03/16 07:05:30;;;;;;;6.32;3.90;;;7.60;99.90;;;;;;4951365;28;20032;-73
2023/03/16 07:07:56;;;;;;;7.30;3.70;;;7.50;99.90;;;;;;4954020;28;20076;-73
2023/03/16 07:10:24;;;;;;;9.77;4.10;;;7.60;99.90;;;;;;4954161;28;20035;-74
2023/03/16 07:12:49;;;;;;;9.90;4.43;;;7.60;99.90;;;;;;5041525;28;20069;-73
2023/03/16 07:15:15;;;;;;;6.30;3.97;;;7.60;99.90;;;;;;4973227;28;20585;-74
2023/03/16 07:17:41;;;;;;;6.47;3.92;;;7.60;99.90;;;;;;4973444;28;20038;-74
2023/03/16 07:20:09;;;;;;;7.57;3.60;;;7.60;99.90;;;;;;4971113;28;20031;-73
2023/03/16 07:22:36;;;;;;;6.93;3.55;;;7.60;99.90;;;;;;4973202;28;20047;-73
2023/03/16 07:25:01;;;;;;;6.13;4.05;;;7.60;99.90;;;;;;4972634;28;20031;-73
2023/03/16 07:27:28;;;;;;;10.50;3.83;;;7.60;99.90;;;;;;4973103;28;20494;-73
2023/03/16 07:29:54;;;;;;;10.73;3.92;;;7.60;99.90;;;;;;4972760;28;20023;-73
2023/03/16 07:32:21;;;;;;;7.40;4.10;;;7.60;99.90;;;;;;4972758;28;20075;-73
2023/03/16 07:34:47;;;;;;;8.27;3.80;;;7.70;99.90;;;;;;4973233;28;20030;-73
2023/03/16 07:37:13;;;;;;;5.60;3.80;;;7.70;99.90;;;;;;4972922;28;20033;-73
2023/03/16 07:39:39;;;;;;;11.77;4.63;;;7.70;99.90;;;;;;4973313;28;20102;-71
2023/03/16 07:42:04;;;;;;;4.13;3.20;;;7.60;99.90;;;;;;4972670;28;20105;-71
2023/03/16 07:44:30;;;;;;;7.28;4.10;;;7.70;99.90;;;;;;4972159;28;20027;-72
2023/03/16 07:46:56;;;;;;;6.22;3.83;;;7.70;99.90;;;;;;4963842;28;20034;-71
2023/03/16 07:49:22;;;;;;;6.18;3.80;;;7.90;99.90;;;;;;4970698;28;20026;-72
2023/03/16 07:51:48;;;;;;;8.25;4.07;;;7.80;99.90;;;;;;4969380;28;20038;-72
2023/03/16 07:54:14;;;;;;;8.35;3.50;;;7.90;99.90;;;;;;4970435;28;20101;-71
2023/03/16 07:56:40;;;;;;;6.88;3.83;;;7.90;99.90;;;;;;4972662;28;20035;-71
2023/03/16 07:59:06;;;;;;;6.30;3.70;;;7.90;99.90;;;;;;4972249;28;20471;-72
2023/03/16 08:01:33;;;;;;;7.28;3.90;;;8.00;99.90;;;;;;4969302;28;20023;-72
2023/03/16 08:04:00;;;;;;;4.82;3.60;;;8.00;99.90;;;;;;4970896;28;20030;-71
2023/03/16 08:06:26;;;;;;;5.90;3.72;;;8.10;99.90;;;;;;4962467;28;20403;-72
2023/03/16 08:08:52;;;;;;;9.93;3.85;;;8.20;99.90;;;;;;4960071;28;20027;-71
2023/03/16 08:11:27;;;;;;;8.45;3.60;;;8.30;99.90;;;;;;4965585;28;20053;-72
2023/03/16 08:13:52;;;;;;;7.15;3.70;;;8.30;99.90;;;;;;4963845;28;20072;-71
2023/03/16 08:16:20;;;;;;;7.72;4.15;;;8.40;99.90;;;;;;4969694;28;20122;-71
2023/03/16 08:18:46;;;;;;;6.60;3.67;;;8.40;99.90;;;;;;4962938;28;20365;-70
2023/03/16 08:21:12;;;;;;;7.68;4.15;;;8.50;99.90;;;;;;4969513;28;20042;-70
2023/03/16 08:23:37;;;;;;;9.50;4.00;;;8.50;99.90;;;;;;4965124;28;20114;-70
2023/03/16 08:26:07;;;;;;;6.88;4.18;;;8.40;99.90;;;;;;4964198;28;20042;-71
2023/03/16 08:28:34;;;;;;;8.05;3.92;;;8.50;99.90;;;;;;4954978;28;20054;-70
2023/03/16 08:31:00;;;;;;;6.15;3.67;;;8.70;99.90;;;;;;4971930;28;20018;-71
2023/03/16 08:33:26;;;;;;;5.28;3.35;;;8.70;99.90;;;;;;4972118;28;20045;-70
2023/03/16 08:35:53;;;;;;;10.90;4.03;;;8.70;99.90;;;;;;4970353;28;20102;-71
2023/03/16 08:38:19;;;;;;;8.23;3.50;;;8.80;99.90;;;;;;4969180;28;20031;-70
2023/03/16 08:40:47;;;;;;;6.80;3.53;;;8.90;99.90;;;;;;4971044;28;20070;-71
2023/03/16 08:43:14;;;;;;;6.63;3.63;;;9.00;99.90;;;;;;4969707;28;20068;-70
2023/03/16 08:45:41;;;;;;;8.57;3.45;;;9.00;99.90;;;;;;4969930;28;20030;-71
2023/03/16 08:48:11;;;;;;;8.40;4.00;;;9.10;99.90;;;;;;4970054;28;20023;-71
2023/03/16 08:50:39;;;;;;;5.03;3.67;;;9.10;99.90;;;;;;4977950;28;20043;-74
2023/03/16 08:53:06;;;;;;;6.70;3.47;;;9.10;99.90;;;;;;4959620;28;20077;-73
2023/03/16 08:55:32;;;;;;;6.57;3.17;;;9.20;99.90;;;;;;4980859;28;20037;-74
2023/03/16 08:57:58;;;;;;;10.15;4.07;;;9.10;99.90;;;;;;4962944;28;20023;-71
2023/03/16 09:00:24;;;;;;;6.97;3.63;;;9.10;99.90;;;;;;4964872;28;20502;-70
2023/03/16 09:02:50;;;;;;;7.68;3.33;;;9.10;99.90;;;;;;4963591;28;20023;-72
2023/03/16 09:05:17;;;;;;;7.47;3.88;;;9.10;99.90;;;;;;4964097;28;20616;-70
2023/03/16 09:07:42;;;;;;;7.60;4.05;;;9.20;99.90;;;;;;4963177;28;20042;-71
2023/03/16 09:10:12;;;;;;;4.88;3.17;;;9.30;99.90;;;;;;4965889;28;20372;-72
2023/03/16 09:12:39;;;;;;;4.25;3.20;;;9.20;99.90;;;;;;4975006;28;20035;-72
2023/03/16 09:15:06;;;;;;;4.07;2.97;;;9.40;99.90;;;;;;4960460;28;20051;-72
2023/03/16 09:17:32;;;;;;;8.65;3.00;;;9.50;99.90;;;;;;4961199;28;20092;-70
2023/03/16 09:19:57;;;;;;;6.63;3.28;;;9.50;99.90;;;;;;4962288;28;20041;-72
2023/03/16 09:22:24;;;;;;;6.93;3.28;;;9.70;99.90;;;;;;4961242;28;20399;-70
2023/03/16 09:24:50;;;;;;;5.95;3.10;;;9.70;99.90;;;;;;4976013;28;20029;-69
2023/03/16 09:27:16;;;;;;;7.93;3.42;;;9.80;99.90;;;;;;4971200;28;20199;-72
2023/03/16 09:29:42;;;;;;;6.35;3.28;;;9.90;99.90;;;;;;4970132;28;20059;-73
2023/03/16 09:32:08;;;;;;;5.32;2.90;;;10.10;99.90;;;;;;4969370;28;20064;-72
2023/03/16 09:34:34;;;;;;;6.18;2.47;;;10.20;99.90;;;;;;4971193;28;20390;-73
2023/03/16 09:37:00;;;;;;;7.57;3.30;;;10.30;99.90;;;;;;4971488;28;20026;-73
2023/03/16 09:39:26;;;;;;;5.25;2.60;;;10.50;99.90;;;;;;4970184;28;20152;-72
2023/03/16 09:42:00;;;;;;;6.68;2.90;;;10.60;99.90;;;;;;4969816;28;20046;-73
2023/03/16 09:45:04;;;;;;;4.80;2.80;;;10.70;99.90;;;;;;4971109;28;20027;-73
2023/03/16 09:47:34;;;;;;;5.97;2.70;;;10.60;99.90;;;;;;4969440;28;20394;-74
2023/03/16 09:50:05;;;;;;;4.47;2.33;;;10.70;99.90;;;;;;4970513;28;20049;-73
2023/03/16 09:52:48;;;;;;;3.03;2.10;;;10.90;99.90;;;;;;5054356;28;20507;-74
2023/03/16 09:55:32;;;;;;;5.22;2.33;;;10.80;99.90;;;;;;4970459;28;20027;-74
2023/03/16 09:58:00;;;;;;;6.03;2.40;;;10.90;99.90;;;;;;4970678;28;20070;-73
2023/03/16 10:00:29;;;;;;;5.60;2.35;;;11.20;99.90;;;;;;4968053;28;20023;-74
2023/03/16 10:03:04;;;;;;;5.70;2.55;;;11.50;99.90;;;;;;4960777;28;20058;-73
2023/03/16 10:05:31;;;;;;;7.35;2.53;;;11.80;99.90;;;;;;4975261;28;20030;-73
2023/03/16 10:08:06;;;;;;;3.85;2.15;;;12.10;99.90;;;;;;4961199;28;20430;-73
2023/03/16 10:10:47;;;;;;;3.47;2.20;;;12.20;99.90;;;;;;4966345;28;20073;-73
2023/03/16 10:13:29;;;;;;;6.63;2.45;;;12.20;99.90;;;;;;4963092;28;20501;-73
2023/03/16 10:15:58;;;;;;;5.90;2.40;;;12.50;99.90;;;;;;4961730;28;20015;-73
2023/03/16 10:18:31;;;;;;;6.18;2.20;;;12.80;99.90;;;;;;4961174;28;20045;-73
2023/03/16 10:20:57;;;;;;;3.83;2.22;;;12.70;99.90;;;;;;4962206;28;20030;-74
2023/03/16 10:23:24;;;;;;;6.38;1.92;;;12.70;99.90;;;;;;4961375;28;20047;-74
2023/03/16 10:25:52;;;;;;;11.90;3.05;;;12.70;99.90;;;;;;4963119;28;20033;-74
2023/03/16 10:28:25;;;;;;;4.85;2.00;;;12.70;99.90;;;;;;4974028;28;20046;-73
2023/03/16 10:30:53;;;;;;;5.97;2.15;;;12.60;99.90;;;;;;5004732;28;20370;-73
2023/03/16 10:33:31;;;;;;;3.95;1.95;;;12.60;99.90;;;;;;4970227;28;20020;-73
2023/03/16 10:36:12;;;;;;;4.32;2.42;;;12.70;99.90;;;;;;4970043;28;20042;-73
2023/03/16 10:38:45;;;;;;;6.47;2.00;;;12.90;99.90;;;;;;4969914;28;20102;-73
2023/03/16 10:41:21;;;;;;;7.88;3.08;;;12.90;99.90;;;;;;4962444;28;20035;-75
2023/03/16 10:44:08;;;;;;;8.07;2.60;;;12.70;99.90;;;;;;4962665;28;20403;-74
2023/03/16 10:46:38;;;;;;;5.20;2.05;;;12.80;99.90;;;;;;4969990;28;20110;-74
2023/03/16 10:49:05;;;;;;;5.18;1.95;;;12.90;99.90;;;;;;4967878;28;20085;-74
2023/03/16 10:51:35;;;;;;;4.10;1.92;;;12.90;99.90;;;;;;4946990;28;20137;-74
2023/03/16 10:54:15;;;;;;;4.88;2.05;;;13.00;99.90;;;;;;5004323;28;20044;-74
2023/03/16 10:56:41;;;;;;;4.90;1.90;;;13.20;99.90;;;;;;5004726;28;20447;-74
2023/03/16 10:59:34;;;;;;;4.82;1.77;;;13.50;99.90;;;;;;4999981;28;20033;-73
2023/03/16 11:02:04;;;;;;;4.95;1.88;;;13.90;99.90;;;;;;4980290;28;20323;-75
2023/03/16 11:04:31;;;;;;;4.80;1.95;;;13.90;99.90;;;;;;4999548;28;20190;-75
2023/03/16 11:06:57;;;;;;;3.83;2.03;;;14.20;99.90;;;;;;4979898;28;20068;-74
2023/03/16 11:09:32;;;;;;;2.75;1.63;;;14.00;99.90;;;;;;4982485;28;20023;-74
2023/03/16 11:11:58;;;;;;;6.15;1.63;;;13.70;99.90;;;;;;5003761;28;20185;-74
2023/03/16 11:14:27;;;;;;;2.70;1.50;;;13.90;99.90;;;;;;4992317;28;20027;-74
2023/03/16 11:17:22;;;;;;;9.30;2.08;;;14.20;99.90;;;;;;4998868;28;20119;-74
2023/03/16 11:19:53;;;;;;;4.25;1.65;;;14.30;99.90;;;;;;4982776;28;20039;-73
2023/03/16 11:22:24;;;;;;;1.75;1.45;;;14.40;99.90;;;;;;4988537;28;20388;-74
2023/03/16 11:25:00;;;;;;;3.50;1.80;;;14.50;99.90;;;;;;4997948;28;20076;-74
2023/03/16 11:27:33;;;;;;;6.10;1.67;;;14.60;99.90;;;;;;4995694;28;20510;-74
2023/03/16 11:30:05;;;;;;;2.75;1.35;;;14.70;99.90;;;;;;4991255;28;20023;-74
2023/03/16 11:32:39;;;;;;;5.83;1.53;;;14.50;99.90;;;;;;4999930;28;20055;-74
2023/03/16 11:35:16;;;;;;;2.78;1.38;;;14.60;99.90;;;;;;4976335;28;20033;-72
2023/03/16 11:37:41;;;;;;;2.13;1.60;;;14.70;99.90;;;;;;5008176;28;20094;-72
2023/03/16 11:40:16;;;;;;;4.53;1.50;;;14.70;99.90;;;;;;4984806;28;20383;-73
2023/03/16 11:42:53;;;;;;;2.78;1.67;;;14.70;99.90;;;;;;4980699;28;20101;-73
2023/03/16 11:45:35;;;;;;;2.95;1.67;;;14.70;99.90;;;;;;5006186;28;20036;-72
2023/03/16 11:48:21;;;;;;;3.78;1.45;;;14.80;99.90;;;;;;4992237;28;20025;-73
2023/03/16 11:51:09;;;;;;;3.33;1.98;;;14.90;99.90;;;;;;4991156;28;20025;-73
2023/03/16 11:53:50;;;;;;;3.83;1.70;;;14.90;99.90;;;;;;5006246;28;20045;-73
2023/03/16 11:56:33;;;;;;;5.80;2.20;;;14.80;99.90;;;;;;4985477;28;20051;-75
2023/03/16 11:59:18;;;;;;;3.53;1.60;;;14.60;99.90;;;;;;4972291;28;20026;-74
2023/03/16 12:01:53;;;;;;;5.72;2.20;;;14.50;99.90;;;;;;4987563;28;20039;-75
2023/03/16 12:04:39;;;;;;;5.00;1.88;;;14.50;99.90;;;;;;4978921;28;20356;-74
2023/03/16 12:07:12;;;;;;;3.65;1.65;;;14.50;99.90;;;;;;4992698;28;20035;-74
2023/03/16 12:10:02;;;;;;;2.60;1.50;;;14.40;99.90;;;;;;4996810;28;20506;-74
2023/03/16 12:13:25;;;;;;;4.72;1.40;;;14.30;99.90;;;;;;4988597;28;20045;-74
2023/03/16 12:15:55;;;;;;;4.20;1.25;;;14.20;99.90;;;;;;5047078;28;20555;-74
2023/03/16 12:18:41;;;;;;;3.53;1.52;;;14.30;99.90;;;;;;5030113;28;20036;-74
2023/03/16 12:21:18;;;;;;;3.70;1.58;;;14.30;99.90;;;;;;5005625;28;20042;-74
2023/03/16 12:23:54;;;;;;;3.35;1.50;;;14.50;99.90;;;;;;5001594;28;22575;-74
2023/03/16 12:26:23;;;;;;;3.17;1.60;;;14.80;99.90;;;;;;4980131;28;20050;-74
2023/03/16 12:28:54;;;;;;;4.15;1.60;;;14.80;99.90;;;;;;4997801;28;20052;-75
2023/03/16 12:31:33;;;;;;;3.33;1.40;;;15.00;99.90;;;;;;5003196;28;20074;-75
2023/03/16 12:34:28;;;;;;;3.53;1.40;;;15.00;99.90;;;;;;5008180;28;20121;-75
2023/03/16 12:37:09;;;;;;;4.85;1.40;;;15.00;99.90;;;;;;4983863;28;20178;-75
2023/03/16 12:39:34;;;;;;;5.57;1.55;;;15.20;99.90;;;;;;4971448;28;20594;-75
2023/03/16 12:42:20;;;;;;;4.22;1.88;;;15.30;99.90;;;;;;4991423;28;20365;-75
2023/03/16 12:44:56;;;;;;;2.25;1.48;;;15.40;99.90;;;;;;4987190;28;20043;-75
2023/03/16 12:47:32;;;;;;;4.68;1.67;;;15.40;99.90;;;;;;4989412;28;20077;-75
2023/03/16 12:50:10;;;;;;;2.72;1.95;;;15.30;99.90;;;;;;4984727;28;20026;-75
2023/03/16 12:52:47;;;;;;;4.55;1.60;;;15.30;99.90;;;;;;4972379;28;22954;-74
2023/03/16 12:55:17;;;;;;;4.30;1.70;;;15.20;99.90;;;;;;4976639;28;20038;-74
2023/03/16 12:57:45;;;;;;;3.70;1.55;;;15.20;99.90;;;;;;4989939;28;20035;-74
2023/03/16 13:00:13;;;;;;;2.15;1.58;;;15.10;99.90;;;;;;4977030;28;20029;-74
2023/03/16 13:02:56;;;;;;;3.42;1.55;;;15.20;99.90;;;;;;4982983;28;20031;-75
2023/03/16 13:05:36;;;;;;;4.63;1.45;;;15.10;99.90;;;;;;4972858;28;20031;-75